createdAt,value
2019-04-20T00:02:25.585Z,6.83
2019-04-20T00:04:57.095Z,6.43
2019-04-20T00:07:32.365Z,7.03
2019-04-20T00:10:08.752Z,8.10
2019-04-20T00:15:36.747Z,8.40
2019-04-20T00:18:10.521Z,7.17
2019-04-20T00:20:56.625Z,7.77
2019-04-20T00:23:34.803Z,7.50
2019-04-20T00:26:26.623Z,7.50
2019-04-20T00:29:07.534Z,7.77
2019-04-20T00:31:42.108Z,7.77
2019-04-20T00:34:06.650Z,6.70
2019-04-20T00:36:33.263Z,7.00
2019-04-20T00:39:09.303Z,7.13
2019-04-20T00:41:44.095Z,6.83
2019-04-20T00:44:17.156Z,7.00
2019-04-20T00:46:58.753Z,7.27
2019-04-20T00:49:30.438Z,6.60
2019-04-20T00:52:18.768Z,7.27
2019-04-20T00:54:24.279Z,6.80
2019-04-20T00:57:05.747Z,6.40
2019-04-20T00:59:42.448Z,7.77
2019-04-20T01:02:19.330Z,9.50
2019-04-20T01:04:55.022Z,8.47
2019-04-20T01:07:28.698Z,7.93
2019-04-20T01:10:00.478Z,7.20
2019-04-20T01:12:35.631Z,7.40
2019-04-20T01:15:11.105Z,7.33
2019-04-20T01:17:41.689Z,7.40
2019-04-20T01:20:12.593Z,7.03
2019-04-20T01:22:51.400Z,7.27
2019-04-20T01:25:22.097Z,7.40
2019-04-20T01:28:09.095Z,7.10
2019-04-20T01:30:30.195Z,6.87
2019-04-20T01:33:12.495Z,7.47
2019-04-20T01:35:44.101Z,7.20
2019-04-20T01:38:25.044Z,6.90
2019-04-20T01:40:40.242Z,7.33
2019-04-20T01:43:12.075Z,7.40
2019-04-20T01:45:45.761Z,6.63
2019-04-20T01:48:26.013Z,6.60
2019-04-20T01:51:02.396Z,7.47
2019-04-20T01:53:44.149Z,6.87
2019-04-20T01:56:19.540Z,6.80
2019-04-20T01:59:29.501Z,7.10
2019-04-20T02:02:13.171Z,6.40
2019-04-20T02:04:49.344Z,7.10
2019-04-20T02:07:30.546Z,7.17
2019-04-20T02:09:58.275Z,6.70
2019-04-20T02:12:32.692Z,6.90
2019-04-20T02:15:04.747Z,7.17
2019-04-20T02:17:43.541Z,7.03
2019-04-20T02:20:35.982Z,6.37
2019-04-20T02:23:01.932Z,6.77
2019-04-20T02:25:18.547Z,7.10
2019-04-20T02:28:13.824Z,6.80
2019-04-20T02:31:06.373Z,6.80
2019-04-20T02:33:50.545Z,6.97
2019-04-20T02:36:24.742Z,6.60
2019-04-20T02:41:51.023Z,6.73
2019-04-20T02:47:07.912Z,6.90
2019-04-20T02:52:33.491Z,7.03
2019-04-20T02:54:45.113Z,7.53
2019-04-20T02:57:35.969Z,7.07
2019-04-20T03:00:01.194Z,7.20
2019-04-20T03:02:06.348Z,7.00
2019-04-20T03:04:35.045Z,6.73
2019-04-20T03:07:15.389Z,6.93
2019-04-20T03:09:50.157Z,7.10
2019-04-20T03:12:34.448Z,6.97
2019-04-20T03:14:55.272Z,7.13
2019-04-20T03:17:39.140Z,7.13
2019-04-20T03:19:58.459Z,7.20
2019-04-20T03:23:06.789Z,6.90
2019-04-20T03:25:17.922Z,7.47
2019-04-20T03:27:59.293Z,7.30
2019-04-20T03:33:51.470Z,7.23
2019-04-20T03:36:09.352Z,7.63
2019-04-20T03:38:34.830Z,8.03
2019-04-20T03:40:59.460Z,8.10
2019-04-20T03:43:22.743Z,8.27
2019-04-20T03:46:01.450Z,8.90
2019-04-20T03:48:46.855Z,8.80
2019-04-20T03:51:30.162Z,8.90
2019-04-20T03:54:20.209Z,8.23
2019-04-20T03:57:12.439Z,8.00
2019-04-20T03:59:51.164Z,8.53
2019-04-20T04:02:37.525Z,9.03
2019-04-20T04:05:20.403Z,8.50
2019-04-20T04:07:40.418Z,8.00
2019-04-20T04:10:23.219Z,8.83
2019-04-20T04:13:16.795Z,8.27
2019-04-20T04:15:57.541Z,8.33
2019-04-20T04:18:31.822Z,8.57
2019-04-20T04:21:03.571Z,8.17
2019-04-20T04:23:48.912Z,8.90
2019-04-20T04:26:21.937Z,8.87
2019-04-20T04:28:56.215Z,8.50
2019-04-20T04:31:33.266Z,8.93
2019-04-20T04:34:04.828Z,8.50
2019-04-20T04:36:36.063Z,8.37
2019-04-20T04:39:15.417Z,8.97
2019-04-20T04:41:57.921Z,8.53
2019-04-20T04:44:17.708Z,9.30
2019-04-20T04:46:42.628Z,9.43
2019-04-20T04:49:24.126Z,8.93
2019-04-20T04:51:58.474Z,8.50
2019-04-20T04:54:30.487Z,9.70
2019-04-20T04:56:58.620Z,9.50
2019-04-20T04:59:31.696Z,9.80
2019-04-20T05:02:03.576Z,9.13
2019-04-20T05:05:25.430Z,9.67
2019-04-20T05:07:51.473Z,10.00
2019-04-20T05:10:15.908Z,9.50
2019-04-20T05:12:48.178Z,10.00
2019-04-20T05:15:34.875Z,10.37
2019-04-20T05:18:16.190Z,9.87
2019-04-20T05:20:53.414Z,9.97
2019-04-20T05:24:04.486Z,10.17
2019-04-20T05:26:55.426Z,10.10
2019-04-20T05:29:14.464Z,10.13
2019-04-20T05:31:49.064Z,10.20
2019-04-20T05:34:40.027Z,10.57
2019-04-20T05:37:17.595Z,10.47
2019-04-20T05:39:44.814Z,10.00
2019-04-20T05:42:28.474Z,10.07
2019-04-20T05:45:07.637Z,11.17
2019-04-20T05:47:42.893Z,10.40
2019-04-20T05:50:15.582Z,9.90
2019-04-20T05:53:21.305Z,10.93
2019-04-20T05:55:33.132Z,10.93
2019-04-20T05:58:14.518Z,10.70
2019-04-20T06:00:51.208Z,10.13
2019-04-20T06:03:10.835Z,9.43
2019-04-20T06:05:52.587Z,9.90
2019-04-20T06:08:29.842Z,9.60
2019-04-20T06:10:49.388Z,10.10
2019-04-20T06:13:27.781Z,11.27
2019-04-20T06:16:12.885Z,9.73
2019-04-20T06:19:09.577Z,9.77
2019-04-20T06:21:37.656Z,9.33
2019-04-20T06:24:27.835Z,10.13
2019-04-20T06:26:59.469Z,9.63
2019-04-20T06:29:21.941Z,10.07
2019-04-20T06:32:05.162Z,9.23
2019-04-20T06:37:01.005Z,9.93
2019-04-20T06:42:14.868Z,9.53
2019-04-20T06:44:46.437Z,9.30
2019-04-20T06:47:18.904Z,9.10
2019-04-20T06:49:56.500Z,8.90
2019-04-20T06:52:45.312Z,8.63
2019-04-20T06:55:19.789Z,9.70
2019-04-20T06:57:54.765Z,10.00
2019-04-20T07:00:22.859Z,9.20
2019-04-20T07:03:01.825Z,9.20
2019-04-20T07:05:43.732Z,9.37
2019-04-20T07:08:37.327Z,9.60
2019-04-20T07:10:58.343Z,10.37
2019-04-20T07:13:18.898Z,10.70
2019-04-20T07:16:18.475Z,10.17
2019-04-20T07:19:06.206Z,9.73
2019-04-20T07:22:10.578Z,10.00
2019-04-20T07:24:35.071Z,9.27
2019-04-20T07:27:03.110Z,9.50
2019-04-20T07:29:40.787Z,8.90
2019-04-20T07:32:07.586Z,9.87
2019-04-20T07:34:41.376Z,9.73
2019-04-20T07:39:58.916Z,9.23
2019-04-20T07:42:37.714Z,9.23
2019-04-20T07:45:13.505Z,9.50
2019-04-20T07:47:46.641Z,9.10
2019-04-20T07:50:12.052Z,8.70
2019-04-20T07:52:39.638Z,9.30
2019-04-20T07:57:52.793Z,9.53
2019-04-20T08:00:44.820Z,9.00
2019-04-20T08:03:33.699Z,9.53
2019-04-20T08:06:15.659Z,9.53
2019-04-20T08:08:55.877Z,9.23
2019-04-20T08:11:28.778Z,8.40
2019-04-20T08:14:13.339Z,8.30
2019-04-20T08:16:47.106Z,8.43
2019-04-20T08:19:08.201Z,8.47
2019-04-20T08:21:48.449Z,8.20
2019-04-20T08:24:17.091Z,7.40
2019-04-20T08:26:38.917Z,7.20
2019-04-20T08:29:41.688Z,7.40
2019-04-20T08:32:31.240Z,7.43
2019-04-20T08:35:05.587Z,7.63
2019-04-20T08:37:40.060Z,7.80
2019-04-20T08:40:12.066Z,7.13
2019-04-20T08:42:59.693Z,6.77
2019-04-20T08:45:24.108Z,6.80
2019-04-20T08:47:56.840Z,6.60
2019-04-20T08:50:29.610Z,6.83
2019-04-20T08:53:20.481Z,7.03
2019-04-20T08:55:33.424Z,6.77
2019-04-20T08:57:51.488Z,6.87
2019-04-20T09:00:30.863Z,7.20
2019-04-20T09:03:04.760Z,7.20
2019-04-20T09:05:42.422Z,7.33
2019-04-20T09:08:13.535Z,7.00
2019-04-20T09:10:59.820Z,6.87
2019-04-20T09:13:24.590Z,6.37
2019-04-20T09:15:49.691Z,6.93
2019-04-20T09:18:39.080Z,7.23
2019-04-20T09:21:15.149Z,6.83
2019-04-20T09:23:57.707Z,7.07
2019-04-20T09:26:32.360Z,7.30
2019-04-20T09:29:04.079Z,7.70
2019-04-20T09:31:43.550Z,7.73
2019-04-20T09:34:51.198Z,7.47
2019-04-20T09:37:20.361Z,7.80
2019-04-20T09:39:53.315Z,6.83
2019-04-20T09:42:31.838Z,6.80
2019-04-20T09:45:06.261Z,6.97
2019-04-20T09:47:46.482Z,7.07
2019-04-20T09:50:32.498Z,6.80
2019-04-20T09:53:03.200Z,6.80
2019-04-20T09:55:33.771Z,6.67
2019-04-20T09:58:11.298Z,7.03
2019-04-20T10:00:53.888Z,6.43
2019-04-20T10:03:16.611Z,6.33
2019-04-20T10:05:49.651Z,6.90
2019-04-20T10:08:21.844Z,6.00
2019-04-20T10:10:54.357Z,6.80
2019-04-20T10:13:27.415Z,6.28
2019-04-20T10:15:59.735Z,6.17
2019-04-20T10:18:41.335Z,6.45
2019-04-20T10:21:09.679Z,6.42
2019-04-20T10:23:42.827Z,6.03
2019-04-20T10:26:14.439Z,6.03
2019-04-20T10:28:47.708Z,6.40
2019-04-20T10:31:18.371Z,6.20
2019-04-20T10:33:53.520Z,6.03
2019-04-20T10:36:43.717Z,6.42
2019-04-20T10:39:18.336Z,6.00
2019-04-20T10:41:54.323Z,5.80
2019-04-20T10:44:23.068Z,6.10
2019-04-20T10:46:54.669Z,5.78
2019-04-20T10:49:29.144Z,5.85
2019-04-20T10:52:00.404Z,5.90
2019-04-20T10:54:32.347Z,6.35
2019-04-20T10:57:04.133Z,6.17
2019-04-20T10:59:35.602Z,5.95
2019-04-20T11:02:07.892Z,5.85
2019-04-20T11:04:40.912Z,5.45
2019-04-20T11:07:12.495Z,4.83
2019-04-20T11:09:43.109Z,5.25
2019-04-20T11:12:14.604Z,5.42
2019-04-20T11:14:50.249Z,4.67
2019-04-20T11:17:22.407Z,4.97
2019-04-20T11:19:59.240Z,5.03
2019-04-20T11:22:30.770Z,5.12
2019-04-20T11:25:04.285Z,6.90
2019-04-20T11:27:36.364Z,23.45
2019-04-20T11:30:09.945Z,7.87
2019-04-20T11:32:44.308Z,6.03
2019-04-20T11:35:25.431Z,20.05
2019-04-20T11:37:51.334Z,5.30
2019-04-20T11:40:23.312Z,5.20
2019-04-20T11:42:55.381Z,5.92
2019-04-20T11:45:28.735Z,5.03
2019-04-20T11:47:59.135Z,5.03
2019-04-20T11:50:33.683Z,4.80
2019-04-20T11:53:03.888Z,4.95
2019-04-20T11:55:36.622Z,5.10
2019-04-20T11:58:08.349Z,5.05
2019-04-20T12:00:53.898Z,4.80
2019-04-20T12:03:47.879Z,4.72
2019-04-20T12:06:08.672Z,4.95
2019-04-20T12:08:41.905Z,4.67
2019-04-20T12:11:26.528Z,4.40
2019-04-20T12:13:46.849Z,4.67
2019-04-20T12:16:19.365Z,4.65
2019-04-20T12:18:52.511Z,4.90
2019-04-20T12:21:26.499Z,4.33
2019-04-20T12:24:02.396Z,4.87
2019-04-20T12:26:56.546Z,4.95
2019-04-20T12:29:27.925Z,4.83
2019-04-20T12:32:02.332Z,4.40
2019-04-20T12:34:33.071Z,4.58
2019-04-20T12:37:05.100Z,4.65
2019-04-20T12:39:37.334Z,4.78
2019-04-20T12:42:10.084Z,4.85
2019-04-20T12:44:42.147Z,4.35
2019-04-20T12:47:14.806Z,4.28
2019-04-20T12:49:45.460Z,4.53
2019-04-20T12:52:19.160Z,4.20
2019-04-20T12:54:52.540Z,4.25
2019-04-20T12:57:24.705Z,4.30
2019-04-20T12:59:55.039Z,4.45
2019-04-20T13:02:27.250Z,4.15
2019-04-20T13:04:57.751Z,3.87
2019-04-20T13:07:40.564Z,4.00
2019-04-20T13:10:05.806Z,4.30
2019-04-20T13:12:58.512Z,4.67
2019-04-20T13:16:00.525Z,4.35
2019-04-20T13:18:41.221Z,4.08
2019-04-20T13:21:13.396Z,4.05
2019-04-20T13:23:45.233Z,4.03
2019-04-20T13:26:17.369Z,3.92
2019-04-20T13:28:50.893Z,4.00
2019-04-20T13:31:22.161Z,3.87
2019-04-20T13:33:52.859Z,3.58
2019-04-20T13:36:24.188Z,3.47
2019-04-20T13:38:59.978Z,3.87
2019-04-20T13:41:31.705Z,3.80
2019-04-20T13:44:04.790Z,3.50
2019-04-20T13:46:36.719Z,3.30
2019-04-20T13:49:11.154Z,3.17
2019-04-20T13:51:42.190Z,3.80
2019-04-20T13:54:20.549Z,4.05
2019-04-20T13:56:50.037Z,3.83
2019-04-20T13:59:41.929Z,4.05
2019-04-20T14:02:30.913Z,3.92
2019-04-20T14:05:04.637Z,3.70
2019-04-20T14:07:37.905Z,4.15
2019-04-20T14:10:09.250Z,4.08
2019-04-20T14:12:53.369Z,3.75
2019-04-20T14:15:13.253Z,3.85
2019-04-20T14:17:44.848Z,3.42
2019-04-20T14:20:20.179Z,3.50
2019-04-20T14:22:49.824Z,3.58
2019-04-20T14:25:21.338Z,4.30
2019-04-20T14:27:52.932Z,3.75
2019-04-20T14:30:24.806Z,3.30
2019-04-20T14:32:56.799Z,3.80
2019-04-20T14:35:29.251Z,4.37
2019-04-20T14:38:01.767Z,3.77
2019-04-20T14:40:32.526Z,3.70
2019-04-20T14:43:03.431Z,4.03
2019-04-20T14:45:34.390Z,3.75
2019-04-20T14:48:05.838Z,4.15
2019-04-20T14:50:38.813Z,4.28
2019-04-20T14:53:09.864Z,4.80
2019-04-20T14:55:43.766Z,4.22
2019-04-20T14:58:37.910Z,4.50
2019-04-20T15:01:24.703Z,4.60
2019-04-20T15:03:59.862Z,5.87
2019-04-20T15:06:29.747Z,4.15
2019-04-20T15:09:06.453Z,4.45
2019-04-20T15:11:41.736Z,4.37
2019-04-20T15:14:14.826Z,3.92
2019-04-20T15:16:46.778Z,3.92
2019-04-20T15:19:31.899Z,4.47
2019-04-20T15:22:05.517Z,4.47
2019-04-20T15:24:37.701Z,4.22
2019-04-20T15:27:10.249Z,4.17
2019-04-20T15:29:44.278Z,4.50
2019-04-20T15:32:18.723Z,4.58
2019-04-20T15:34:50.878Z,4.83
2019-04-20T15:37:23.420Z,5.10
2019-04-20T15:39:54.937Z,4.87
2019-04-20T15:42:33.445Z,4.72
2019-04-20T15:45:07.570Z,4.80
2019-04-20T15:47:50.075Z,5.22
2019-04-20T15:50:22.605Z,5.62
2019-04-20T15:53:02.658Z,5.35
2019-04-20T15:55:37.933Z,5.58
2019-04-20T15:58:12.452Z,5.58
2019-04-20T16:00:46.676Z,5.45
2019-04-20T16:03:29.662Z,6.15
2019-04-20T16:06:03.429Z,6.30
2019-04-20T16:08:38.934Z,5.85
2019-04-20T16:11:13.322Z,6.15
2019-04-20T16:13:50.015Z,5.78
2019-04-20T16:16:21.548Z,5.97
2019-04-20T16:18:55.196Z,5.65
2019-04-20T16:21:33.856Z,5.60
2019-04-20T16:24:15.151Z,5.80
2019-04-20T16:27:27.704Z,5.95
2019-04-20T16:30:05.506Z,6.05
2019-04-20T16:32:36.826Z,5.87
2019-04-20T16:35:12.483Z,5.80
2019-04-20T16:37:44.663Z,5.83
2019-04-20T16:40:17.684Z,6.20
2019-04-20T16:42:52.148Z,5.80
2019-04-20T16:45:23.406Z,7.15
2019-04-20T16:48:00.469Z,6.20
2019-04-20T16:50:35.126Z,6.70
2019-04-20T16:53:10.686Z,6.35
2019-04-20T16:55:45.129Z,6.87
2019-04-20T16:58:18.265Z,6.40
2019-04-20T17:00:50.093Z,6.20
2019-04-20T17:03:27.882Z,6.70
2019-04-20T17:05:56.146Z,7.35
2019-04-20T17:08:29.214Z,6.78
2019-04-20T17:11:01.834Z,7.05
2019-04-20T17:13:43.124Z,6.62
2019-04-20T17:16:10.285Z,6.53
2019-04-20T17:18:41.442Z,6.92
2019-04-20T17:21:16.595Z,6.20
2019-04-20T17:23:47.321Z,6.60
2019-04-20T17:26:32.767Z,6.47
2019-04-20T17:29:12.169Z,6.45
2019-04-20T17:31:58.556Z,7.12
2019-04-20T17:34:44.000Z,6.70
2019-04-20T17:37:04.551Z,6.67
2019-04-20T17:40:01.732Z,6.30
2019-04-20T17:42:26.447Z,6.97
2019-04-20T17:44:53.038Z,6.47
2019-04-20T17:47:41.803Z,6.47
2019-04-20T17:50:10.871Z,6.20
2019-04-20T17:52:49.606Z,6.28
2019-04-20T17:55:24.047Z,6.67
2019-04-20T17:57:43.942Z,6.83
2019-04-20T18:00:22.510Z,6.78
2019-04-20T18:03:12.351Z,6.80
2019-04-20T18:06:01.147Z,6.35
2019-04-20T18:08:35.610Z,6.80
2019-04-20T18:11:02.055Z,6.47
2019-04-20T18:13:30.309Z,6.80
2019-04-20T18:16:22.427Z,6.72
2019-04-20T18:19:00.266Z,7.50
2019-04-20T18:21:30.733Z,6.97
2019-04-20T18:24:05.226Z,6.78
2019-04-20T18:26:52.062Z,6.75
2019-04-20T18:29:32.520Z,7.30
2019-04-20T18:32:01.869Z,7.25
2019-04-20T18:34:58.402Z,7.47
2019-04-20T18:37:27.353Z,7.15
2019-04-20T18:40:06.165Z,7.60
2019-04-20T18:42:38.863Z,7.40
2019-04-20T18:45:26.713Z,6.85
2019-04-20T18:48:06.319Z,7.58
2019-04-20T18:50:30.536Z,7.92
2019-04-20T18:52:57.930Z,7.30
2019-04-20T18:55:40.698Z,7.23
2019-04-20T18:58:01.532Z,7.92
2019-04-20T19:00:44.484Z,7.37
2019-04-20T19:03:20.497Z,7.03
2019-04-20T19:05:51.407Z,7.75
2019-04-20T19:08:33.769Z,7.40
2019-04-20T19:11:04.097Z,7.97
2019-04-20T19:13:47.479Z,7.27
2019-04-20T19:16:53.882Z,7.50
2019-04-20T19:19:24.540Z,7.83
2019-04-20T19:22:08.012Z,7.63
2019-04-20T19:24:43.636Z,7.80
2019-04-20T19:27:17.090Z,7.30
2019-04-20T19:29:56.510Z,7.67
2019-04-20T19:32:38.272Z,7.90
2019-04-20T19:35:01.619Z,7.70
2019-04-20T19:37:34.596Z,8.10
2019-04-20T19:40:10.890Z,7.97
2019-04-20T19:42:47.921Z,8.17
2019-04-20T19:45:41.005Z,8.33
2019-04-20T19:47:54.686Z,9.13
2019-04-20T19:53:12.534Z,8.97
2019-04-20T19:55:31.354Z,9.60
2019-04-20T19:58:09.707Z,9.67
2019-04-20T20:00:51.366Z,10.33
2019-04-20T20:03:19.824Z,10.40
2019-04-20T20:05:54.819Z,11.53
2019-04-20T20:08:29.928Z,11.50
2019-04-20T20:11:03.023Z,10.77
2019-04-20T20:13:41.194Z,10.97
2019-04-20T20:16:14.449Z,11.67
2019-04-20T20:18:53.359Z,10.60
2019-04-20T20:21:24.802Z,10.47
2019-04-20T20:23:48.147Z,11.10
2019-04-20T20:26:31.294Z,11.97
2019-04-20T20:29:09.268Z,10.60
2019-04-20T20:31:51.378Z,11.60
2019-04-20T20:34:15.767Z,11.07
2019-04-20T20:36:47.129Z,11.47
2019-04-20T20:39:21.377Z,11.27
2019-04-20T20:41:58.071Z,10.40
2019-04-20T20:44:31.772Z,10.53
2019-04-20T20:47:05.564Z,10.37
2019-04-20T20:49:56.801Z,10.80
2019-04-20T20:52:26.218Z,10.30
2019-04-20T20:54:51.437Z,10.27
2019-04-20T20:57:18.699Z,9.83
2019-04-20T20:59:55.518Z,10.13
2019-04-20T21:02:33.689Z,11.30
2019-04-20T21:04:55.472Z,11.63
2019-04-20T21:07:26.987Z,10.97
2019-04-20T21:09:58.933Z,10.53
2019-04-20T21:12:30.573Z,11.70
2019-04-20T21:15:10.639Z,11.50
2019-04-20T21:17:41.733Z,12.13
2019-04-20T21:20:33.143Z,12.17
2019-04-20T21:23:00.370Z,11.60
2019-04-20T21:25:40.770Z,11.50
2019-04-20T21:28:08.913Z,11.37
2019-04-20T21:30:43.697Z,11.37
2019-04-20T21:33:15.011Z,10.97
2019-04-20T21:35:49.994Z,11.20
2019-04-20T21:38:20.215Z,11.17
2019-04-20T21:41:02.239Z,12.00
2019-04-20T21:43:29.976Z,11.97
2019-04-20T21:46:01.755Z,11.53
2019-04-20T21:48:46.694Z,11.23
2019-04-20T21:51:21.218Z,11.73
2019-04-20T21:53:37.808Z,11.87
2019-04-20T21:56:10.196Z,11.30
2019-04-20T21:58:49.630Z,11.50
2019-04-20T22:01:25.393Z,12.10
2019-04-20T22:03:52.372Z,11.90
2019-04-20T22:06:24.466Z,11.43
2019-04-20T22:09:00.065Z,11.70
2019-04-20T22:11:29.921Z,12.00
2019-04-20T22:14:10.771Z,11.90
2019-04-20T22:16:41.731Z,11.43
2019-04-20T22:19:20.924Z,12.27
2019-04-20T22:21:53.406Z,12.13
2019-04-20T22:24:36.945Z,12.50
2019-04-20T22:27:03.103Z,11.87
2019-04-20T22:29:24.000Z,11.47
2019-04-20T22:32:00.463Z,12.63
2019-04-20T22:34:29.860Z,12.17
2019-04-20T22:37:02.261Z,11.70
2019-04-20T22:39:43.237Z,11.50
2019-04-20T22:42:13.342Z,10.93
2019-04-20T22:44:48.001Z,11.27
2019-04-20T22:47:21.948Z,11.30
2019-04-20T22:50:14.057Z,11.33
2019-04-20T22:52:34.858Z,10.87
2019-04-20T22:55:20.983Z,10.30
2019-04-20T22:57:44.775Z,11.03
2019-04-20T23:00:10.276Z,11.10
2019-04-20T23:02:37.112Z,10.10
2019-04-20T23:05:10.860Z,11.20
2019-04-20T23:07:42.390Z,11.03
2019-04-20T23:10:20.276Z,11.30
2019-04-20T23:12:53.296Z,10.77
2019-04-20T23:15:22.820Z,10.80
2019-04-20T23:17:54.060Z,10.20
2019-04-20T23:20:31.802Z,10.13
2019-04-20T23:23:00.785Z,10.00
2019-04-20T23:25:35.216Z,10.23
2019-04-20T23:28:13.480Z,10.50
2019-04-20T23:30:43.662Z,10.97
2019-04-20T23:33:16.043Z,10.90
2019-04-20T23:35:54.201Z,10.00
2019-04-20T23:38:24.220Z,9.80
2019-04-20T23:40:55.669Z,9.93
2019-04-20T23:43:38.784Z,10.10
2019-04-20T23:46:31.394Z,10.57
2019-04-20T23:49:27.242Z,11.83
2019-04-20T23:52:21.504Z,11.27
2019-04-20T23:54:30.250Z,11.60
2019-04-20T23:57:01.680Z,10.50
2019-04-20T23:59:41.082Z,11.30
